Time;durP1;ratioP1;P1;durP2;ratioP2;P2;SDS_P1;SDS_P2;PMS_P1;PMS_P2;Temp;Humidity;BMP_temperature;BMP_pressure;BME280_temperature;BME280_humidity;BME280_pressure;Samples;Min_cycle;Max_cycle;Signal;HPM_P1;HPM_P2
2022/06/14 05:48:53;;;;;;;10.60;5.32;;;;;;;;;;5047798;28;20350;-78
2022/06/14 05:51:22;;;;;;;13.27;4.82;;;;;;;;;;5040028;28;20442;-78
2022/06/14 05:54:14;;;;;;;13.43;5.05;;;12.90;99.90;;;;;;5045313;28;20505;-78
2022/06/14 05:56:52;;;;;;;14.05;4.75;;;13.00;99.90;;;;;;5028194;28;20476;-78
2022/06/14 05:59:31;;;;;;;11.23;4.47;;;;;;;;;;5047240;28;20431;-77
2022/06/14 06:02:07;;;;;;;13.70;4.70;;;;;;;;;;5027556;28;20422;-79
2022/06/14 06:04:37;;;;;;;10.65;4.63;;;13.50;99.90;;;;;;5055153;28;20428;-80
2022/06/14 06:07:05;;;;;;;12.55;4.40;;;;;;;;;;5045498;28;20434;-79
2022/06/14 06:11:47;;;;;;;13.63;5.00;;;;;;;;;;5090524;27;20890;-79
2022/06/14 06:14:31;;;;;;;13.25;4.30;;;;;;;;;;5115864;27;20421;-79
2022/06/14 06:17:08;;;;;;;7.40;3.78;;;13.90;99.90;;;;;;5066547;28;20426;-79
2022/06/14 06:20:01;;;;;;;9.43;4.45;;;14.00;99.90;;;;;;5087352;28;20408;-79
2022/06/14 06:22:30;;;;;;;11.15;4.38;;;;;;;;;;5061696;28;20441;-79
2022/06/14 06:25:03;;;;;;;9.50;4.00;;;;;;;;;;5117943;27;20426;-79
2022/06/14 06:27:34;;;;;;;11.73;4.00;;;14.40;99.90;;;;;;5077616;28;20442;-76
2022/06/14 06:30:17;;;;;;;8.32;3.50;;;14.30;99.90;;;;;;5080782;28;20419;-76
2022/06/14 06:32:44;;;;;;;10.90;3.95;;;14.50;99.90;;;;;;5084772;28;20421;-75
2022/06/14 06:35:11;;;;;;;9.75;4.10;;;;;;;;;;5084271;28;20415;-76
2022/06/14 06:39:33;;;;;;;10.50;3.73;;;14.60;99.90;;;;;;5104978;27;20378;-76
2022/06/14 06:42:12;;;;;;;9.57;3.70;;;15.00;99.90;;;;;;5072298;28;20620;-76
2022/06/14 06:44:46;;;;;;;9.80;3.53;;;14.90;99.90;;;;;;5084278;28;20772;-76
2022/06/14 06:47:33;;;;;;;9.05;2.90;;;14.90;99.90;;;;;;5061594;28;20422;-75
2022/06/14 06:50:02;;;;;;;9.63;3.42;;;;;;;;;;5062686;28;20460;-76
2022/06/14 06:52:40;;;;;;;8.00;3.00;;;;;;;;;;5063993;28;20781;-76
2022/06/14 06:55:26;;;;;;;8.37;3.17;;;15.20;99.90;;;;;;5083458;28;20511;-76
2022/06/14 06:57:55;;;;;;;11.70;3.28;;;15.50;99.90;;;;;;5059862;28;20424;-75
2022/06/14 07:00:22;;;;;;;10.07;2.90;;;15.60;99.90;;;;;;5068332;28;20893;-75
2022/06/14 07:02:56;;;;;;;9.18;2.65;;;15.60;99.90;;;;;;5067120;28;20552;-75
2022/06/14 07:05:22;;;;;;;7.60;2.78;;;;;;;;;;5072009;28;20419;-77
2022/06/14 07:08:05;;;;;;;7.22;1.95;;;15.80;99.90;;;;;;5084793;28;20427;-76
2022/06/14 07:10:52;;;;;;;6.50;1.98;;;15.70;99.90;;;;;;5072755;28;20441;-75
2022/06/14 07:13:34;;;;;;;7.97;2.40;;;15.70;99.90;;;;;;5078291;28;20452;-74
2022/06/14 07:16:05;;;;;;;6.65;2.70;;;;;;;;;;5072459;28;20422;-75
2022/06/14 07:19:06;;;;;;;8.02;2.65;;;16.00;99.90;;;;;;5079602;28;20431;-75
2022/06/14 07:21:38;;;;;;;8.43;2.53;;;16.00;99.90;;;;;;5079471;28;20453;-72
2022/06/14 07:24:09;;;;;;;6.22;2.70;;;16.10;99.90;;;;;;5092980;28;20431;-72
2022/06/14 07:26:46;;;;;;;7.75;2.58;;;15.90;99.90;;;;;;5080575;28;20873;-71
2022/06/14 07:29:16;;;;;;;8.15;2.97;;;16.20;99.90;;;;;;5064184;28;20968;-73
2022/06/14 07:31:54;;;;;;;7.80;2.80;;;16.50;99.90;;;;;;5063919;28;20448;-74
2022/06/14 07:34:20;;;;;;;8.57;2.90;;;16.30;99.90;;;;;;5075602;28;20944;-74
2022/06/14 07:36:46;;;;;;;7.30;2.83;;;;;;;;;;5084489;28;20411;-76
2022/06/14 07:39:47;;;;;;;8.00;2.50;;;16.00;99.90;;;;;;5085973;28;20440;-75
2022/06/14 07:42:17;;;;;;;6.03;2.65;;;16.40;99.90;;;;;;5020590;28;20447;-75
2022/06/14 07:45:03;;;;;;;9.73;2.00;;;16.30;99.90;;;;;;5085157;28;20897;-74
2022/06/14 07:47:28;;;;;;;5.63;1.77;;;16.50;99.90;;;;;;5087702;28;20423;-74
2022/06/14 07:49:58;;;;;;;5.23;1.63;;;;;;;;;;5074275;28;20426;-74
2022/06/14 07:52:53;;;;;;;6.78;2.00;;;16.10;99.90;;;;;;5082761;28;20466;-75
2022/06/14 07:55:24;;;;;;;4.93;1.80;;;16.40;99.90;;;;;;5082932;28;20424;-74
2022/06/14 07:58:02;;;;;;;5.88;1.90;;;16.50;99.90;;;;;;5088673;28;20422;-74
2022/06/14 08:03:36;;;;;;;7.32;2.10;;;17.10;99.90;;;;;;5084495;28;20402;-75
2022/06/14 08:06:07;;;;;;;6.10;2.15;;;17.50;99.90;;;;;;5078432;28;20425;-79
2022/06/14 08:08:36;;;;;;;5.28;1.88;;;17.80;99.90;;;;;;5091015;28;20890;-78
2022/06/14 08:11:11;;;;;;;5.63;2.30;;;18.10;99.90;;;;;;5066523;28;20460;-77
2022/06/14 08:13:43;;;;;;;6.40;2.08;;;17.50;99.90;;;;;;5065225;28;20422;-79
2022/06/14 08:16:10;;;;;;;4.78;2.05;;;17.70;99.90;;;;;;5079792;28;20449;-78
2022/06/14 08:18:44;;;;;;;8.27;2.10;;;17.30;99.90;;;;;;5086977;28;20441;-77
2022/06/14 08:21:27;;;;;;;7.37;2.47;;;17.20;99.90;;;;;;5068710;28;20430;-78
2022/06/14 08:24:03;;;;;;;6.78;2.13;;;17.20;99.90;;;;;;5082169;28;20478;-78
2022/06/14 08:26:32;;;;;;;6.70;1.88;;;17.40;99.90;;;;;;5078325;28;20458;-76
2022/06/14 08:29:36;;;;;;;4.60;2.35;;;17.10;99.90;;;;;;5062210;28;20541;-78
2022/06/14 08:32:21;;;;;;;5.82;1.90;;;17.00;99.90;;;;;;5084949;28;20778;-77
2022/06/14 08:34:58;;;;;;;6.05;2.50;;;17.10;99.90;;;;;;5069070;28;20973;-78
2022/06/14 08:37:34;;;;;;;5.57;1.90;;;17.40;99.90;;;;;;5080212;28;20506;-77
2022/06/14 08:40:12;;;;;;;4.65;1.95;;;;;;;;;;5063888;28;20422;-77
2022/06/14 08:42:45;;;;;;;3.38;1.70;;;17.80;99.90;;;;;;5083347;28;20418;-78
2022/06/14 08:45:27;;;;;;;5.57;1.77;;;18.20;99.90;;;;;;5078120;28;20746;-77
2022/06/14 08:48:24;;;;;;;7.90;1.77;;;18.40;99.90;;;;;;5094444;28;20460;-80
2022/06/14 08:51:26;;;;;;;4.37;1.90;;;19.00;99.90;;;;;;5062603;28;20471;-80
2022/06/14 08:54:30;;;;;;;3.17;1.53;;;19.50;99.90;;;;;;5066393;28;20805;-80
2022/06/14 08:57:30;;;;;;;5.28;1.90;;;19.40;99.90;;;;;;5067294;28;20919;-81
2022/06/14 09:00:05;;;;;;;4.40;1.70;;;19.00;99.90;;;;;;5073488;28;20918;-76
2022/06/14 09:02:42;;;;;;;4.10;1.85;;;18.70;99.90;;;;;;5064539;28;20491;-76
2022/06/14 09:05:47;;;;;;;3.78;1.60;;;18.40;99.90;;;;;;5083133;28;20425;-76
2022/06/14 09:08:40;;;;;;;5.55;1.80;;;18.40;99.90;;;;;;5042767;28;20440;-76
2022/06/14 09:11:41;;;;;;;4.65;1.70;;;18.20;99.90;;;;;;5089557;28;20417;-78
2022/06/14 09:14:07;;;;;;;4.90;1.95;;;18.20;99.90;;;;;;5081253;28;20418;-77
2022/06/14 09:17:00;;;;;;;4.50;1.88;;;18.10;99.90;;;;;;5090808;28;20398;-76
2022/06/14 09:19:57;;;;;;;6.00;1.80;;;18.40;99.90;;;;;;5090411;28;20434;-77
2022/06/14 09:22:26;;;;;;;4.60;1.90;;;19.10;99.90;;;;;;5053341;28;20946;-76
2022/06/14 09:25:21;;;;;;;4.78;1.80;;;19.50;99.90;;;;;;5085663;28;20502;-76
2022/06/14 09:28:12;;;;;;;7.43;2.10;;;19.80;99.90;;;;;;5079228;28;20479;-77
2022/06/14 09:31:13;;;;;;;4.35;1.70;;;19.90;99.90;;;;;;5065651;28;20882;-76
2022/06/14 09:33:50;;;;;;;6.88;1.90;;;20.20;99.90;;;;;;5081575;28;21256;-76
2022/06/14 09:36:30;;;;;;;3.97;1.65;;;19.70;99.90;;;;;;5075999;28;20416;-77
2022/06/14 09:39:11;;;;;;;3.70;1.60;;;19.30;99.90;;;;;;5059681;28;20424;-77
2022/06/14 09:41:57;;;;;;;4.80;1.70;;;19.50;99.90;;;;;;5081148;28;20411;-77
2022/06/14 09:45:03;;;;;;;3.65;1.80;;;19.30;99.90;;;;;;5064328;28;20778;-77
2022/06/14 09:47:37;;;;;;;3.77;1.50;;;19.40;99.90;;;;;;5086857;28;20414;-77
2022/06/14 09:50:08;;;;;;;3.35;1.55;;;19.30;99.90;;;;;;5059201;28;20426;-77
2022/06/14 09:53:11;;;;;;;3.10;1.20;;;20.10;99.90;;;;;;5083058;28;20750;-76
2022/06/14 09:56:06;;;;;;;4.07;1.40;;;19.80;99.90;;;;;;5068936;28;20746;-77
2022/06/14 09:59:09;;;;;;;3.50;1.60;;;20.40;99.90;;;;;;5084674;28;20424;-76
2022/06/14 10:01:48;;;;;;;4.30;1.80;;;19.60;99.90;;;;;;5071373;28;20410;-78
2022/06/14 10:04:27;;;;;;;5.53;1.60;;;19.60;99.90;;;;;;5060392;28;20471;-78
2022/06/14 10:07:16;;;;;;;6.50;1.85;;;19.50;99.90;;;;;;5059598;28;20435;-77
2022/06/14 10:09:44;;;;;;;4.93;1.50;;;19.60;99.90;;;;;;5082659;28;20450;-76
2022/06/14 10:12:34;;;;;;;7.53;2.20;;;19.50;99.90;;;;;;5062115;28;20433;-77
2022/06/14 10:15:14;;;;;;;4.45;1.75;;;20.20;99.90;;;;;;5078031;28;20424;-77
2022/06/14 10:18:03;;;;;;;3.60;1.77;;;19.50;99.90;;;;;;5079144;28;20426;-77
2022/06/14 10:20:53;;;;;;;4.72;1.73;;;19.40;99.90;;;;;;5054913;28;20423;-77
2022/06/14 10:23:29;;;;;;;4.13;1.70;;;19.50;99.90;;;;;;5069876;28;20760;-77
2022/06/14 10:29:47;;;;;;;3.95;1.73;;;19.70;99.90;;;;;;5080427;28;20800;-78
2022/06/14 10:32:16;;;;;;;7.40;2.17;;;19.60;99.90;;;;;;5063879;28;20429;-77
2022/06/14 10:34:55;;;;;;;5.72;1.90;;;20.10;99.90;;;;;;5079145;28;20770;-77
2022/06/14 10:37:39;;;;;;;4.82;2.00;;;20.30;99.90;;;;;;5077323;28;20508;-77
2022/06/14 10:40:26;;;;;;;3.97;1.60;;;20.60;99.90;;;;;;5070714;28;20429;-77
2022/06/14 10:43:21;;;;;;;4.70;1.80;;;21.20;99.90;;;;;;5066401;28;21264;-77
2022/06/14 10:45:55;;;;;;;5.00;1.75;;;21.40;99.90;;;;;;5075808;28;20429;-78
2022/06/14 10:48:21;;;;;;;3.73;1.40;;;21.00;99.90;;;;;;5076110;28;20495;-78
2022/06/14 10:51:33;;;;;;;3.70;1.50;;;21.10;99.90;;;;;;5062394;28;20421;-78
2022/06/14 10:54:25;;;;;;;3.05;1.40;;;21.00;99.90;;;;;;5008572;28;20416;-78
2022/06/14 10:56:58;;;;;;;3.53;1.47;;;21.60;99.90;;;;;;5059302;28;20436;-78
2022/06/14 10:59:57;;;;;;;4.10;1.50;;;21.70;99.90;;;;;;5071245;28;20414;-78
2022/06/14 11:02:49;;;;;;;4.83;1.70;;;21.60;99.90;;;;;;5079511;28;20405;-78
2022/06/14 11:05:49;;;;;;;3.77;1.60;;;21.30;99.90;;;;;;5078034;28;20428;-78
2022/06/14 11:08:30;;;;;;;4.97;1.60;;;21.00;99.90;;;;;;5088882;28;21015;-77
2022/06/14 11:11:09;;;;;;;4.35;1.67;;;20.50;99.90;;;;;;5066243;28;20431;-77
2022/06/14 11:13:53;;;;;;;3.80;1.50;;;20.50;99.90;;;;;;5089028;28;20792;-76
2022/06/14 11:16:46;;;;;;;4.93;1.80;;;20.70;99.90;;;;;;5060019;28;20504;-76
2022/06/14 11:19:59;;;;;;;4.15;1.60;;;20.80;99.90;;;;;;5076714;28;20456;-83
2022/06/14 11:22:28;;;;;;;4.07;1.63;;;20.40;99.90;;;;;;5048101;28;20418;-84
2022/06/14 11:25:32;;;;;;;5.28;1.75;;;20.30;99.90;;;;;;5087443;28;20433;-76
2022/06/14 11:28:16;;;;;;;4.78;2.00;;;20.20;99.90;;;;;;5077020;28;20419;-76
2022/06/14 11:31:14;;;;;;;4.20;1.60;;;19.80;99.90;;;;;;5068294;28;20422;-76
2022/06/14 11:33:52;;;;;;;5.07;1.80;;;19.70;99.90;;;;;;5075498;28;20749;-77
2022/06/14 11:36:26;;;;;;;5.03;2.17;;;19.90;99.90;;;;;;5074291;28;20414;-76
2022/06/14 11:39:12;;;;;;;6.22;2.35;;;19.80;99.90;;;;;;5073568;28;20430;-76
2022/06/14 11:41:44;;;;;;;4.97;1.80;;;20.10;99.90;;;;;;5083618;28;20735;-76
2022/06/14 11:44:35;;;;;;;4.67;2.00;;;19.60;99.90;;;;;;5073786;28;20469;-77
2022/06/14 11:47:29;;;;;;;4.97;1.93;;;19.80;99.90;;;;;;5077754;28;20428;-76
2022/06/14 11:50:04;;;;;;;6.40;2.10;;;;;;;;;;5082688;28;20909;-77
2022/06/14 11:53:02;;;;;;;5.50;2.00;;;20.20;99.90;;;;;;5073083;28;20479;-77
2022/06/14 11:55:43;;;;;;;4.25;1.70;;;20.20;99.90;;;;;;5027255;28;20502;-77
2022/06/14 11:58:16;;;;;;;5.07;1.80;;;20.30;99.90;;;;;;5093819;28;20921;-76
2022/06/14 12:01:06;;;;;;;4.47;1.85;;;20.20;99.90;;;;;;5085649;28;20414;-76
2022/06/14 12:03:54;;;;;;;4.20;1.90;;;20.50;99.90;;;;;;5063750;28;20424;-76
2022/06/14 12:06:30;;;;;;;6.78;1.95;;;20.60;99.90;;;;;;5069886;28;20425;-76
2022/06/14 12:09:08;;;;;;;5.22;1.80;;;20.50;99.90;;;;;;5080511;28;20421;-76
2022/06/14 12:11:40;;;;;;;4.30;1.80;;;20.80;99.90;;;;;;5089144;28;20502;-77
2022/06/14 12:14:23;;;;;;;4.00;1.50;;;20.90;99.90;;;;;;5077665;28;20633;-76
2022/06/14 12:17:26;;;;;;;4.38;1.67;;;20.90;99.90;;;;;;5080449;28;20430;-77
2022/06/14 12:20:05;;;;;;;4.05;1.80;;;21.10;99.90;;;;;;5081143;28;20512;-77
2022/06/14 12:22:51;;;;;;;4.93;1.58;;;21.00;99.90;;;;;;5075859;28;20870;-77
2022/06/14 12:28:30;;;;;;;3.45;1.52;;;21.10;99.90;;;;;;5082985;28;20506;-77
2022/06/14 12:31:09;;;;;;;5.70;1.80;;;20.80;99.90;;;;;;5059608;28;20860;-77
2022/06/14 12:34:00;;;;;;;4.88;1.85;;;21.00;99.90;;;;;;5089083;28;20442;-78
2022/06/14 12:36:47;;;;;;;4.57;1.90;;;21.20;99.90;;;;;;5084593;28;20419;-78
2022/06/14 12:39:52;;;;;;;4.28;2.00;;;20.90;99.90;;;;;;5089179;28;20440;-77
2022/06/14 12:42:33;;;;;;;6.38;2.10;;;20.70;99.90;;;;;;5067094;28;20509;-77
2022/06/14 12:45:11;;;;;;;5.25;2.45;;;20.30;99.90;;;;;;5079833;28;20414;-77
2022/06/14 12:47:58;;;;;;;5.90;2.25;;;20.40;99.90;;;;;;5086266;28;20420;-77
2022/06/14 12:50:35;;;;;;;5.18;2.30;;;20.40;99.90;;;;;;5074382;28;20408;-77
2022/06/14 12:53:23;;;;;;;4.70;2.00;;;20.70;99.90;;;;;;5091376;28;20422;-77
2022/06/14 12:56:06;;;;;;;4.00;1.90;;;20.70;99.90;;;;;;5078376;28;20512;-80
2022/06/14 12:58:37;;;;;;;5.97;2.00;;;21.00;99.90;;;;;;5092395;28;20839;-80
2022/06/14 13:01:09;;;;;;;5.20;2.08;;;20.80;99.90;;;;;;5080687;28;20429;-80
2022/06/14 13:03:50;;;;;;;4.82;2.10;;;21.50;99.90;;;;;;5074684;28;20417;-80
2022/06/14 13:06:31;;;;;;;4.80;2.30;;;20.60;99.90;;;;;;5064314;28;20432;-80
2022/06/14 13:09:10;;;;;;;5.45;2.30;;;20.90;99.90;;;;;;5084837;28;20781;-80
2022/06/14 13:12:13;;;;;;;7.18;2.45;;;21.10;99.90;;;;;;5075717;28;20419;-80
2022/06/14 13:14:55;;;;;;;5.55;2.00;;;21.00;99.90;;;;;;5087035;28;20410;-81
2022/06/14 13:17:43;;;;;;;8.25;2.30;;;21.10;99.90;;;;;;5092219;28;20462;-77
2022/06/14 13:20:44;;;;;;;4.85;2.47;;;20.80;99.90;;;;;;5077967;28;20435;-78
2022/06/14 13:23:29;;;;;;;7.55;2.40;;;19.60;99.90;;;;;;5072210;28;20396;-80
2022/06/14 13:26:18;;;;;;;5.38;1.90;;;19.90;99.90;;;;;;5067535;28;20969;-81
2022/06/14 13:28:50;;;;;;;6.50;2.00;;;21.40;99.90;;;;;;5081269;28;20427;-80
2022/06/14 13:31:37;;;;;;;4.55;2.08;;;22.10;99.90;;;;;;5083221;28;20406;-80
2022/06/14 13:34:28;;;;;;;3.92;1.70;;;21.60;99.90;;;;;;5072564;28;20398;-81
2022/06/14 13:37:12;;;;;;;4.22;1.83;;;22.00;99.90;;;;;;5081122;28;20469;-81
2022/06/14 13:39:58;;;;;;;4.63;1.90;;;22.20;99.90;;;;;;5083885;28;20889;-79
2022/06/14 13:42:36;;;;;;;6.20;2.28;;;22.70;99.90;;;;;;5074187;28;20940;-80
2022/06/14 13:45:15;;;;;;;4.57;1.70;;;24.70;99.90;;;;;;5055924;28;20472;-79
2022/06/14 13:48:06;;;;;;;3.72;1.60;;;24.50;99.90;;;;;;5071689;28;20506;-79
2022/06/14 13:50:43;;;;;;;3.90;1.60;;;22.90;99.90;;;;;;5067096;28;20822;-79
2022/06/14 13:53:24;;;;;;;3.47;1.60;;;23.50;99.90;;;;;;5091791;28;20491;-78
2022/06/14 13:56:03;;;;;;;4.22;1.85;;;23.80;99.90;;;;;;5091418;28;20477;-79
2022/06/14 13:58:35;;;;;;;6.30;2.30;;;24.10;99.90;;;;;;5083353;28;20415;-79
2022/06/14 14:01:26;;;;;;;7.38;2.42;;;24.60;99.90;;;;;;5084578;28;20497;-80
2022/06/14 14:04:15;;;;;;;5.68;2.03;;;24.20;99.90;;;;;;5089907;28;20422;-80
2022/06/14 14:06:46;;;;;;;4.82;1.90;;;21.90;99.90;;;;;;5091737;28;20404;-80
2022/06/14 14:09:37;;;;;;;4.93;2.35;;;23.80;99.90;;;;;;5091168;28;20406;-80
2022/06/14 14:12:33;;;;;;;5.05;2.00;;;24.30;99.90;;;;;;5068671;28;20427;-80
2022/06/14 14:15:31;;;;;;;5.90;2.00;;;24.50;99.90;;;;;;5069382;28;20402;-80
2022/06/14 14:18:09;;;;;;;4.93;2.10;;;24.90;99.90;;;;;;5071071;28;20507;-80
2022/06/14 14:20:37;;;;;;;3.65;1.95;;;24.60;99.90;;;;;;5080938;28;20798;-80
2022/06/14 14:23:22;;;;;;;5.57;2.25;;;24.40;99.90;;;;;;5091886;28;20493;-80
2022/06/14 14:26:04;;;;;;;4.57;1.90;;;24.40;99.90;;;;;;5073649;28;20403;-79
2022/06/14 14:29:00;;;;;;;3.45;1.85;;;24.10;99.90;;;;;;5074292;28;20417;-79
2022/06/14 14:31:31;;;;;;;3.77;1.90;;;24.20;99.90;;;;;;5092206;28;20402;-80
2022/06/14 14:34:07;;;;;;;5.22;2.20;;;24.20;99.90;;;;;;5077059;28;20494;-77
2022/06/14 14:36:52;;;;;;;5.03;2.30;;;23.70;99.90;;;;;;5087100;28;20424;-77
2022/06/14 14:39:21;;;;;;;5.55;2.70;;;24.70;99.90;;;;;;5086556;28;20564;-76
2022/06/14 14:42:02;;;;;;;4.88;2.30;;;23.60;99.90;;;;;;5069778;28;20809;-77
2022/06/14 14:44:31;;;;;;;5.77;2.33;;;23.30;99.90;;;;;;5080785;28;20603;-77
2022/06/14 14:47:19;;;;;;;6.60;2.60;;;23.20;99.90;;;;;;5063282;28;20423;-77
2022/06/14 14:49:56;;;;;;;4.40;2.42;;;23.60;99.90;;;;;;5073810;28;20421;-76
2022/06/14 14:52:40;;;;;;;5.35;2.35;;;23.20;99.90;;;;;;5083522;28;20417;-76
2022/06/14 14:55:29;;;;;;;4.20;2.22;;;23.30;99.90;;;;;;5090292;28;20513;-77
2022/06/14 14:58:07;;;;;;;3.45;2.10;;;23.30;99.90;;;;;;5081840;28;21030;-77
2022/06/14 15:06:24;;;;;;;5.05;2.20;;;23.20;99.90;;;;;;5085604;28;20419;-77
2022/06/14 15:08:55;;;;;;;5.63;2.20;;;23.40;99.90;;;;;;5086901;28;20426;-77
2022/06/14 15:11:27;;;;;;;4.90;2.60;;;23.70;99.90;;;;;;5086948;28;20427;-75
2022/06/14 15:13:55;;;;;;;5.97;2.53;;;23.70;99.90;;;;;;5083684;28;20809;-75
2022/06/14 15:16:34;;;;;;;5.63;2.57;;;23.50;99.90;;;;;;5085001;28;20408;-78
2022/06/14 15:21:55;;;;;;;5.17;2.40;;;23.10;99.90;;;;;;5084590;28;20505;-75
2022/06/14 15:24:49;;;;;;;5.03;2.50;;;23.40;99.90;;;;;;5063819;28;20408;-76
2022/06/14 15:27:17;;;;;;;7.43;2.60;;;23.30;99.90;;;;;;5082878;28;20414;-75
2022/06/14 15:29:53;;;;;;;6.47;2.42;;;22.90;99.90;;;;;;5075262;28;20440;-74
2022/06/14 15:32:28;;;;;;;5.40;2.60;;;22.60;99.90;;;;;;5070962;28;20441;-74
2022/06/14 15:34:56;;;;;;;6.85;2.60;;;23.00;99.90;;;;;;5078266;28;20419;-75
2022/06/14 15:37:30;;;;;;;4.40;2.40;;;23.10;99.90;;;;;;5059003;28;20419;-77
2022/06/14 15:40:09;;;;;;;7.32;2.60;;;23.30;99.90;;;;;;5071421;28;20426;-77
2022/06/14 15:43:08;;;;;;;5.78;2.55;;;22.90;99.90;;;;;;5093028;28;20409;-77
2022/06/14 15:45:55;;;;;;;9.70;3.20;;;23.20;99.90;;;;;;5054622;28;20523;-78
2022/06/14 15:48:30;;;;;;;5.70;2.65;;;22.70;99.90;;;;;;5088264;28;20418;-77
2022/06/14 15:51:01;;;;;;;6.13;2.40;;;23.20;99.90;;;;;;5090049;28;20801;-77
2022/06/14 15:53:38;;;;;;;4.78;2.55;;;23.10;99.90;;;;;;5085325;28;20769;-78
2022/06/14 15:56:17;;;;;;;7.00;2.90;;;23.10;99.90;;;;;;5089701;28;20400;-77
2022/06/14 15:58:48;;;;;;;6.40;3.10;;;23.00;99.90;;;;;;5087726;28;20760;-76
2022/06/14 16:01:31;;;;;;;5.95;2.75;;;22.90;99.90;;;;;;5083081;28;20823;-77
2022/06/14 16:04:18;;;;;;;6.03;2.50;;;23.00;99.90;;;;;;5086076;28;20417;-76
2022/06/14 16:07:05;;;;;;;6.20;3.00;;;22.60;99.90;;;;;;5078709;28;20402;-77
2022/06/14 16:09:39;;;;;;;4.72;2.60;;;22.20;99.90;;;;;;5063018;28;20909;-76
2022/06/14 16:12:10;;;;;;;5.75;2.90;;;22.30;99.90;;;;;;5089926;28;20464;-76
2022/06/14 16:14:48;;;;;;;6.55;2.70;;;21.90;99.90;;;;;;5076087;28;20498;-76
2022/06/14 16:17:36;;;;;;;6.50;2.30;;;21.70;99.90;;;;;;5070030;28;20412;-78
2022/06/14 16:20:21;;;;;;;4.70;2.40;;;22.00;99.90;;;;;;5070210;28;20422;-76
2022/06/14 16:22:49;;;;;;;8.15;2.97;;;21.70;99.90;;;;;;5064106;28;20444;-76
2022/06/14 16:25:22;;;;;;;6.03;2.97;;;21.90;99.90;;;;;;5062349;28;20417;-75
2022/06/14 16:28:01;;;;;;;6.10;3.10;;;21.70;99.90;;;;;;5067017;28;20521;-75
2022/06/14 16:30:31;;;;;;;8.18;3.78;;;22.10;99.90;;;;;;5073132;28;20422;-76
2022/06/14 16:33:07;;;;;;;7.03;3.40;;;21.60;99.90;;;;;;5079287;28;20419;-75
2022/06/14 16:35:39;;;;;;;7.38;3.53;;;21.60;99.90;;;;;;5098112;28;20420;-75
2022/06/14 16:38:20;;;;;;;6.57;3.47;;;21.40;99.90;;;;;;5072787;28;20430;-74
2022/06/14 16:41:01;;;;;;;8.10;3.80;;;21.50;99.90;;;;;;5086894;28;20443;-75
2022/06/14 16:44:08;;;;;;;7.83;3.90;;;21.30;99.90;;;;;;5064574;28;20497;-75
2022/06/14 16:47:12;;;;;;;7.55;3.55;;;21.30;99.90;;;;;;5046550;28;20421;-75
2022/06/14 16:50:04;;;;;;;7.80;4.33;;;21.30;99.90;;;;;;5029408;28;20435;-74
2022/06/14 16:52:47;;;;;;;7.63;3.90;;;21.00;99.90;;;;;;5083671;28;20402;-74
2022/06/14 16:55:16;;;;;;;7.35;3.67;;;20.90;99.90;;;;;;5082149;28;20425;-74
2022/06/14 16:58:04;;;;;;;13.32;4.10;;;20.80;99.90;;;;;;5072721;28;20446;-75
2022/06/14 17:00:56;;;;;;;8.32;3.80;;;20.70;99.90;;;;;;5064785;28;20418;-75
2022/06/14 17:03:55;;;;;;;7.97;4.10;;;20.80;99.90;;;;;;5053035;28;20993;-75
2022/06/14 17:06:50;;;;;;;6.57;3.72;;;20.60;99.90;;;;;;5066313;28;20421;-75
2022/06/14 17:09:15;;;;;;;8.00;4.10;;;20.70;99.90;;;;;;5050586;28;20421;-74
2022/06/14 17:12:01;;;;;;;8.88;3.80;;;21.10;99.90;;;;;;5079745;28;20427;-74
2022/06/14 17:14:54;;;;;;;7.60;4.05;;;20.70;99.90;;;;;;5084661;28;20425;-74
2022/06/14 17:17:29;;;;;;;8.85;4.30;;;20.80;99.90;;;;;;5070070;28;20446;-75
2022/06/14 17:20:24;;;;;;;8.20;3.93;;;20.80;99.90;;;;;;5076067;28;20420;-74
2022/06/14 17:22:59;;;;;;;8.13;3.90;;;20.60;99.90;;;;;;5054471;28;20903;-75
2022/06/14 17:31:14;;;;;;;9.32;4.10;;;20.90;99.90;;;;;;5080390;28;20425;-75
2022/06/14 17:33:47;;;;;;;7.45;3.88;;;21.20;99.90;;;;;;5069249;28;20469;-74
2022/06/14 17:36:29;;;;;;;7.15;4.10;;;21.00;99.90;;;;;;5076333;28;20409;-75
2022/06/14 17:39:39;;;;;;;9.80;4.07;;;21.00;99.90;;;;;;5081630;28;20422;-75
2022/06/14 17:42:10;;;;;;;7.10;3.63;;;21.00;99.90;;;;;;5079192;28;20431;-75
2022/06/14 17:44:48;;;;;;;10.10;3.85;;;21.00;99.90;;;;;;5064296;28;20478;-75
2022/06/14 17:47:17;;;;;;;8.30;3.90;;;21.10;99.90;;;;;;5085438;28;20421;-75
2022/06/14 17:50:06;;;;;;;7.72;3.72;;;21.20;99.90;;;;;;5079713;28;20490;-74
2022/06/14 17:52:45;;;;;;;13.60;3.90;;;21.00;99.90;;;;;;5082007;28;20431;-76
2022/06/14 17:55:36;;;;;;;7.05;3.83;;;21.30;99.90;;;;;;5055432;28;20420;-74
2022/06/14 17:58:22;;;;;;;6.63;3.45;;;21.20;99.90;;;;;;5086987;28;20430;-74
2022/06/14 18:00:56;;;;;;;6.57;3.60;;;21.60;99.90;;;;;;5076934;28;20424;-74
2022/06/14 18:03:22;;;;;;;9.73;3.97;;;21.00;99.90;;;;;;5085029;28;20445;-74
2022/06/14 18:05:51;;;;;;;9.32;4.25;;;21.00;99.90;;;;;;5063236;28;20432;-74
2022/06/14 18:08:19;;;;;;;9.35;4.10;;;20.80;99.90;;;;;;5062097;28;20475;-74
2022/06/14 18:10:59;;;;;;;10.57;3.95;;;20.40;99.90;;;;;;5078358;28;20934;-75
2022/06/14 18:13:42;;;;;;;6.23;4.20;;;20.40;99.90;;;;;;5085212;28;20919;-74
2022/06/14 18:16:16;;;;;;;7.20;4.50;;;20.60;99.90;;;;;;5063796;28;20875;-74
2022/06/14 18:18:48;;;;;;;7.88;4.50;;;20.40;99.90;;;;;;5074586;28;20433;-74
2022/06/14 18:21:29;;;;;;;7.03;4.22;;;20.60;99.90;;;;;;5081449;28;20475;-74
2022/06/14 18:24:03;;;;;;;9.85;4.55;;;20.30;99.90;;;;;;5077699;28;20507;-77
2022/06/14 18:26:49;;;;;;;9.48;4.63;;;20.30;99.90;;;;;;5086205;28;20410;-80
2022/06/14 18:29:44;;;;;;;11.55;5.13;;;20.10;99.90;;;;;;5064188;28;20456;-80
2022/06/14 18:32:14;;;;;;;9.73;4.97;;;20.30;99.90;;;;;;5063004;28;20501;-78
2022/06/14 18:34:46;;;;;;;9.02;4.80;;;20.10;99.90;;;;;;5083786;28;20426;-77
2022/06/14 18:37:25;;;;;;;9.33;4.50;;;20.10;99.90;;;;;;5079180;28;20426;-78
2022/06/14 18:39:54;;;;;;;8.65;4.60;;;20.10;99.90;;;;;;5067226;28;20418;-79
2022/06/14 18:42:28;;;;;;;8.90;4.88;;;19.90;99.90;;;;;;5063080;28;20423;-79
2022/06/14 18:45:12;;;;;;;12.95;5.10;;;19.90;99.90;;;;;;5062012;28;20734;-79
2022/06/14 18:47:58;;;;;;;11.38;4.90;;;19.60;99.90;;;;;;5077742;28;20513;-79
2022/06/14 18:50:28;;;;;;;8.20;4.53;;;19.80;99.90;;;;;;5076080;28;20443;-79
2022/06/14 18:55:31;;;;;;;29.77;26.75;;;19.50;99.90;;;;;;5079531;28;20510;-77
2022/06/14 18:58:00;;;;;;;13.43;5.80;;;19.10;99.90;;;;;;5083716;28;20418;-77
2022/06/14 19:00:30;;;;;;;9.37;4.83;;;19.50;99.90;;;;;;5086393;28;20424;-78
2022/06/14 19:03:21;;;;;;;9.95;4.85;;;19.20;99.90;;;;;;5081378;28;20829;-77
2022/06/14 19:05:49;;;;;;;9.00;4.13;;;19.00;99.90;;;;;;5065590;28;20426;-77
2022/06/14 19:08:27;;;;;;;7.15;4.50;;;19.00;99.90;;;;;;5065304;28;20421;-78
2022/06/14 19:11:10;;;;;;;9.23;4.30;;;19.00;99.90;;;;;;5075905;28;20811;-77
2022/06/14 19:13:55;;;;;;;9.05;4.00;;;18.90;99.90;;;;;;5083039;28;20433;-77
2022/06/14 19:16:36;;;;;;;12.60;5.07;;;;;;;;;;5082812;28;20498;-77
2022/06/14 19:19:24;;;;;;;10.68;4.88;;;18.80;99.90;;;;;;5065804;28;20453;-77
2022/06/14 19:22:01;;;;;;;9.05;4.18;;;18.50;99.90;;;;;;5066982;28;20421;-77
2022/06/14 19:24:46;;;;;;;7.70;4.25;;;18.90;99.90;;;;;;5083327;28;20445;-77
2022/06/14 19:27:18;;;;;;;9.85;4.85;;;18.40;99.90;;;;;;5055834;28;20482;-77
2022/06/14 19:29:49;;;;;;;7.72;4.60;;;;;;;;;;5067743;28;20410;-78
2022/06/14 19:32:24;;;;;;;9.70;4.80;;;18.60;99.90;;;;;;5083908;28;20429;-79
2022/06/14 19:35:16;;;;;;;11.00;4.50;;;18.60;99.90;;;;;;5060419;28;20502;-78
2022/06/14 19:37:57;;;;;;;9.32;4.78;;;18.20;99.90;;;;;;5070633;28;20432;-79
2022/06/14 19:40:48;;;;;;;8.43;4.10;;;18.30;99.90;;;;;;5070036;28;20430;-79
2022/06/14 19:43:22;;;;;;;7.88;4.00;;;18.20;99.90;;;;;;5057385;28;20414;-79
2022/06/14 19:45:57;;;;;;;8.65;4.47;;;;;;;;;;5069396;28;20489;-77
2022/06/14 19:51:12;;;;;;;8.43;4.28;;;18.40;99.90;;;;;;5067713;28;20423;-77
2022/06/14 19:53:39;;;;;;;9.50;4.50;;;18.20;99.90;;;;;;5085203;28;20421;-77
2022/06/14 19:56:07;;;;;;;9.05;4.18;;;18.20;99.90;;;;;;5080592;28;20511;-77
2022/06/14 19:58:40;;;;;;;9.87;3.93;;;18.10;99.90;;;;;;5067266;28;20416;-77
2022/06/14 20:01:15;;;;;;;9.73;4.47;;;;;;;;;;5087707;28;20601;-79
2022/06/14 20:03:45;;;;;;;9.93;4.03;;;18.10;99.90;;;;;;5072930;28;20493;-78
2022/06/14 20:06:31;;;;;;;9.10;4.60;;;;;;;;;;5073578;28;20471;-79
2022/06/14 20:09:20;;;;;;;7.05;4.40;;;18.20;99.90;;;;;;5064161;28;20912;-78
2022/06/14 20:11:47;;;;;;;9.73;4.70;;;18.00;99.90;;;;;;5066425;28;20417;-78
2022/06/14 20:14:15;;;;;;;9.32;4.30;;;18.10;99.90;;;;;;5052651;28;20502;-79
2022/06/14 20:16:49;;;;;;;10.52;4.70;;;18.10;99.90;;;;;;5082609;28;20905;-76
2022/06/14 20:19:34;;;;;;;9.00;4.30;;;18.20;99.90;;;;;;5072517;28;20423;-79
2022/06/14 20:22:06;;;;;;;9.63;4.70;;;17.90;99.90;;;;;;5066589;28;20433;-79
2022/06/14 20:24:32;;;;;;;7.00;4.70;;;17.90;99.90;;;;;;5081233;28;20446;-77